createdAt,value
2022-10-14T00:01:24.434Z,97.60
2022-10-14T00:03:51.934Z,97.60
2022-10-14T00:06:21.940Z,97.70
2022-10-14T00:08:54.939Z,97.90
2022-10-14T00:11:27.921Z,97.80
2022-10-14T00:13:57.774Z,98.00
2022-10-14T00:16:32.383Z,98.10
2022-10-14T00:19:00.181Z,98.00
2022-10-14T00:21:28.765Z,98.20
2022-10-14T00:23:55.678Z,98.30
2022-10-14T00:26:28.601Z,98.40
2022-10-14T00:28:56.577Z,98.60
2022-10-14T00:31:24.035Z,98.60
2022-10-14T00:33:50.895Z,98.60
2022-10-14T00:36:22.509Z,98.70
2022-10-14T00:38:49.609Z,98.70
2022-10-14T00:41:29.089Z,98.90
2022-10-14T00:44:00.638Z,99.10
2022-10-14T00:46:30.731Z,99.00
2022-10-14T00:49:01.667Z,99.00
2022-10-14T00:51:28.737Z,99.10
2022-10-14T00:53:58.879Z,99.30
2022-10-14T00:56:28.858Z,99.30
2022-10-14T00:58:56.581Z,99.40
2022-10-14T01:01:23.637Z,99.40
2022-10-14T01:03:53.668Z,99.50
2022-10-14T01:06:40.237Z,99.60
2022-10-14T01:09:30.999Z,99.60
2022-10-14T01:12:34.847Z,99.60
2022-10-14T01:15:10.984Z,99.60
2022-10-14T01:18:01.810Z,99.80
2022-10-14T01:20:47.445Z,99.80
2022-10-14T01:23:51.787Z,99.90
2022-10-14T01:26:33.619Z,99.90
2022-10-14T01:29:18.975Z,99.90
2022-10-14T01:31:48.954Z,99.90
2022-10-14T01:34:24.852Z,99.90
2022-10-14T01:36:59.081Z,99.90
2022-10-14T01:39:33.312Z,99.90
2022-10-14T01:42:14.284Z,99.90
2022-10-14T01:44:47.958Z,99.90
2022-10-14T01:47:19.540Z,99.90
2022-10-14T01:49:59.101Z,99.90
2022-10-14T01:52:31.288Z,99.90
2022-10-14T01:55:03.129Z,99.90
2022-10-14T01:57:34.188Z,99.90
2022-10-14T02:00:03.028Z,99.90
2022-10-14T02:02:35.757Z,99.90
2022-10-14T02:05:06.783Z,99.90
2022-10-14T02:07:40.566Z,99.90
2022-10-14T02:10:21.866Z,99.90
2022-10-14T02:13:07.440Z,99.90
2022-10-14T02:15:52.608Z,99.90
2022-10-14T02:18:43.624Z,99.90
2022-10-14T02:21:35.540Z,99.90
2022-10-14T02:24:11.469Z,99.90
2022-10-14T02:26:40.212Z,99.90
2022-10-14T02:29:07.556Z,99.90
2022-10-14T02:31:37.992Z,99.90
2022-10-14T02:34:10.902Z,99.90
2022-10-14T02:36:38.748Z,99.90
2022-10-14T02:39:11.868Z,99.90
2022-10-14T02:41:39.359Z,99.90
2022-10-14T02:44:09.237Z,99.90
2022-10-14T02:46:38.801Z,99.90
2022-10-14T02:49:05.612Z,99.90
2022-10-14T02:51:32.342Z,99.90
2022-10-14T02:54:01.486Z,99.90
2022-10-14T02:56:31.059Z,99.90
2022-10-14T02:59:00.083Z,99.90
2022-10-14T03:01:26.955Z,99.90
2022-10-14T03:03:53.765Z,99.90
2022-10-14T03:06:20.587Z,99.90
2022-10-14T03:08:47.426Z,99.90
2022-10-14T03:11:14.196Z,99.90
2022-10-14T03:13:43.503Z,99.90
2022-10-14T03:16:10.229Z,99.90
2022-10-14T03:18:39.388Z,99.90
2022-10-14T03:21:08.327Z,99.90
2022-10-14T03:23:39.675Z,99.90
2022-10-14T03:26:13.980Z,99.90
2022-10-14T03:28:41.260Z,99.90
2022-10-14T03:31:10.375Z,99.90
2022-10-14T03:33:37.406Z,99.90
2022-10-14T03:36:06.501Z,99.90
2022-10-14T03:38:33.263Z,99.90
2022-10-14T03:41:04.862Z,99.90
2022-10-14T03:43:31.711Z,99.90
2022-10-14T03:45:58.435Z,99.90
2022-10-14T03:48:25.292Z,99.90
2022-10-14T03:50:52.008Z,99.90
2022-10-14T03:53:18.867Z,99.80
2022-10-14T03:55:45.767Z,99.80
2022-10-14T03:58:14.701Z,99.80
2022-10-14T04:00:41.463Z,99.80
2022-10-14T04:03:08.246Z,99.70
2022-10-14T04:05:37.149Z,99.90
2022-10-14T04:08:04.135Z,99.50
2022-10-14T04:10:31.323Z,99.50
2022-10-14T04:13:00.558Z,99.50
2022-10-14T04:15:29.791Z,99.50
2022-10-14T04:17:57.021Z,99.50
2022-10-14T04:20:26.247Z,99.60
2022-10-14T04:22:53.007Z,99.90
2022-10-14T04:25:20.316Z,99.90
2022-10-14T04:27:47.087Z,99.90
2022-10-14T04:30:13.873Z,99.90
2022-10-14T04:32:40.765Z,99.90
2022-10-14T04:35:07.707Z,99.90
2022-10-14T04:37:34.426Z,99.90
2022-10-14T04:40:04.128Z,99.90
2022-10-14T04:42:31.292Z,99.90
2022-10-14T04:45:00.253Z,99.90
2022-10-14T04:47:26.987Z,99.90
2022-10-14T04:49:55.847Z,99.90
2022-10-14T04:52:22.947Z,99.90
2022-10-14T04:54:52.530Z,99.90
2022-10-14T04:57:21.480Z,99.90
2022-10-14T04:59:50.469Z,99.90
2022-10-14T05:02:17.674Z,99.90
2022-10-14T05:04:44.429Z,99.90
2022-10-14T05:07:12.170Z,99.90
2022-10-14T05:09:39.197Z,99.90
2022-10-14T05:12:06.167Z,99.90
2022-10-14T05:14:33.201Z,99.90
2022-10-14T05:17:04.764Z,99.90
2022-10-14T05:19:31.561Z,99.90
2022-10-14T05:22:00.615Z,99.70
2022-10-14T05:24:27.520Z,99.50
2022-10-14T05:26:54.321Z,99.30
2022-10-14T05:29:21.118Z,98.70
2022-10-14T05:31:47.894Z,98.40
2022-10-14T05:34:14.648Z,98.10
2022-10-14T05:36:44.230Z,97.90
2022-10-14T05:39:13.572Z,97.60
2022-10-14T05:41:40.319Z,97.30
2022-10-14T05:44:11.144Z,97.00
2022-10-14T05:46:38.075Z,96.70
2022-10-14T05:49:06.075Z,96.40
2022-10-14T05:51:35.355Z,96.00
2022-10-14T05:54:04.987Z,95.80
2022-10-14T05:56:33.828Z,95.60
2022-10-14T05:59:03.223Z,95.40
2022-10-14T06:01:34.833Z,95.10
2022-10-14T06:04:01.568Z,94.40
2022-10-14T06:06:29.222Z,94.10
2022-10-14T06:08:57.136Z,93.70
2022-10-14T06:11:26.469Z,93.40
2022-10-14T06:13:53.555Z,93.50
2022-10-14T06:16:20.581Z,93.30
2022-10-14T06:18:50.996Z,93.10
2022-10-14T06:21:22.757Z,92.80
2022-10-14T06:23:49.891Z,92.40
2022-10-14T06:26:16.668Z,92.00
2022-10-14T06:28:46.485Z,91.80
2022-10-14T06:31:13.455Z,91.40
2022-10-14T06:33:43.549Z,91.30
2022-10-14T06:36:13.330Z,91.30
2022-10-14T06:38:40.947Z,91.10
2022-10-14T06:41:10.237Z,90.90
2022-10-14T06:43:39.312Z,90.30
2022-10-14T06:46:06.673Z,90.10
2022-10-14T06:48:33.475Z,89.00
2022-10-14T06:51:01.282Z,88.80
2022-10-14T06:53:31.528Z,88.00
2022-10-14T06:56:04.490Z,87.40
2022-10-14T06:58:33.893Z,86.90
2022-10-14T07:01:05.903Z,86.60
2022-10-14T07:03:39.254Z,86.00
2022-10-14T07:06:07.779Z,84.30
2022-10-14T07:08:34.945Z,84.20
2022-10-14T07:11:04.309Z,83.30
2022-10-14T07:13:34.540Z,83.00
2022-10-14T07:16:01.360Z,81.70
2022-10-14T07:18:28.196Z,80.60
2022-10-14T07:20:55.033Z,79.70
2022-10-14T07:23:24.518Z,79.60
2022-10-14T07:25:53.361Z,79.00
2022-10-14T07:28:20.294Z,78.60
2022-10-14T07:30:59.041Z,77.40
2022-10-14T07:33:28.651Z,75.90
2022-10-14T07:36:06.311Z,75.70
2022-10-14T07:38:33.186Z,75.40
2022-10-14T07:41:05.324Z,75.10
2022-10-14T07:43:33.938Z,75.00
2022-10-14T07:46:05.217Z,74.50
2022-10-14T07:48:45.257Z,73.60
2022-10-14T07:51:20.583Z,73.50
2022-10-14T07:53:48.597Z,72.90
2022-10-14T07:56:17.904Z,72.60
2022-10-14T07:58:47.745Z,72.50
2022-10-14T08:01:16.075Z,72.30
2022-10-14T08:03:46.807Z,71.90
2022-10-14T08:06:14.583Z,70.50
2022-10-14T08:08:42.368Z,70.50
2022-10-14T08:11:15.425Z,70.30
2022-10-14T08:13:45.985Z,70.30
2022-10-14T08:16:19.828Z,70.40
2022-10-14T08:18:48.116Z,70.40
2022-10-14T08:21:15.897Z,70.40
2022-10-14T08:23:42.886Z,69.80
2022-10-14T08:26:40.090Z,70.20
2022-10-14T08:29:10.862Z,70.70
2022-10-14T08:31:39.932Z,71.40
2022-10-14T08:34:06.752Z,72.20
2022-10-14T08:36:36.165Z,72.80
2022-10-14T08:39:04.707Z,73.30
2022-10-14T08:41:46.887Z,73.70
2022-10-14T08:44:13.581Z,73.90
2022-10-14T08:46:51.029Z,74.20
2022-10-14T08:49:38.574Z,74.40
2022-10-14T08:52:27.766Z,74.20
2022-10-14T08:55:02.192Z,73.80
2022-10-14T08:57:44.192Z,73.30
2022-10-14T09:00:12.370Z,72.50
2022-10-14T09:02:50.703Z,71.40
2022-10-14T09:05:21.389Z,70.60
2022-10-14T09:07:52.221Z,69.90
2022-10-14T09:10:31.359Z,68.70
2022-10-14T09:13:07.527Z,67.60
2022-10-14T09:15:40.476Z,67.80
2022-10-14T09:18:31.463Z,67.10
2022-10-14T09:21:02.444Z,67.10
2022-10-14T09:23:29.281Z,66.80
2022-10-14T09:25:59.077Z,66.80
2022-10-14T09:28:40.483Z,66.80
2022-10-14T09:31:11.087Z,66.80
2022-10-14T09:33:42.845Z,66.40
2022-10-14T09:36:20.732Z,66.60
2022-10-14T09:38:52.775Z,66.10
2022-10-14T09:41:25.141Z,65.40
2022-10-14T09:44:14.895Z,65.30
2022-10-14T09:46:46.464Z,65.20
2022-10-14T09:49:20.054Z,66.00
2022-10-14T09:51:46.888Z,65.80
2022-10-14T09:54:26.579Z,65.90
2022-10-14T09:57:08.038Z,65.60
2022-10-14T09:59:49.895Z,65.10
2022-10-14T10:02:25.763Z,64.60
2022-10-14T10:04:57.395Z,64.80
2022-10-14T10:07:31.978Z,64.50
2022-10-14T10:10:05.582Z,64.20
2022-10-14T10:12:36.009Z,63.30
2022-10-14T10:15:06.659Z,63.00
2022-10-14T10:17:36.059Z,62.20
2022-10-14T10:20:12.603Z,61.10
2022-10-14T10:22:44.527Z,60.70
2022-10-14T10:25:17.267Z,60.20
2022-10-14T10:27:46.301Z,59.70
2022-10-14T10:30:16.151Z,59.40
2022-10-14T10:33:14.068Z,58.10
2022-10-14T10:36:09.048Z,56.70
2022-10-14T10:38:51.006Z,56.20
2022-10-14T10:41:31.299Z,55.20
2022-10-14T10:44:16.744Z,53.30
2022-10-14T10:47:14.044Z,53.30
2022-10-14T10:49:52.884Z,52.40
2022-10-14T10:52:41.073Z,52.00
2022-10-14T10:55:35.023Z,51.50
2022-10-14T10:58:39.094Z,51.70
2022-10-14T11:01:31.565Z,51.40
2022-10-14T11:04:05.890Z,51.40
2022-10-14T11:07:28.062Z,51.00
2022-10-14T11:10:28.586Z,49.90
2022-10-14T11:13:04.576Z,48.90
2022-10-14T11:15:50.674Z,48.30
2022-10-14T11:18:45.638Z,47.90
2022-10-14T11:21:31.696Z,48.10
2022-10-14T11:24:10.372Z,47.90
2022-10-14T11:27:08.568Z,47.20
2022-10-14T11:30:01.343Z,47.10
2022-10-14T11:33:04.347Z,45.70
2022-10-14T11:35:50.839Z,46.00
2022-10-14T11:38:43.783Z,46.80
2022-10-14T11:41:24.752Z,47.00
2022-10-14T11:43:56.663Z,46.40
2022-10-14T11:46:28.968Z,46.90
2022-10-14T11:49:17.356Z,47.70
2022-10-14T11:51:57.316Z,48.40
2022-10-14T11:54:52.715Z,48.00
2022-10-14T11:57:33.446Z,48.50
2022-10-14T12:00:56.495Z,46.80
2022-10-14T12:04:04.652Z,44.80
2022-10-14T12:06:41.908Z,44.80
2022-10-14T12:09:42.109Z,44.40
2022-10-14T12:12:13.571Z,44.50
2022-10-14T12:14:46.627Z,44.40
2022-10-14T12:17:27.438Z,44.60
2022-10-14T12:20:01.217Z,44.50
2022-10-14T12:22:31.680Z,44.60
2022-10-14T12:25:17.288Z,44.00
2022-10-14T12:27:44.592Z,43.60
2022-10-14T12:30:38.803Z,42.70
2022-10-14T12:33:09.608Z,42.80
2022-10-14T12:35:50.788Z,41.90
2022-10-14T12:38:18.935Z,41.00
2022-10-14T12:40:49.356Z,40.40
2022-10-14T12:43:26.696Z,40.30
2022-10-14T12:46:16.489Z,40.90
2022-10-14T12:48:51.029Z,41.30
2022-10-14T12:51:21.203Z,42.00
2022-10-14T12:54:12.328Z,41.90
2022-10-14T12:56:56.373Z,41.70
2022-10-14T12:59:29.887Z,43.00
2022-10-14T13:02:01.191Z,43.70
2022-10-14T13:04:31.565Z,43.60
2022-10-14T13:07:42.769Z,42.30
2022-10-14T13:10:47.578Z,35.60
2022-10-14T13:13:42.515Z,34.90
2022-10-14T13:16:11.283Z,33.30
2022-10-14T13:18:44.836Z,34.20
2022-10-14T13:21:26.128Z,34.80
2022-10-14T13:23:53.550Z,31.70
2022-10-14T13:26:27.679Z,29.60
2022-10-14T13:29:23.139Z,28.00
2022-10-14T13:31:57.869Z,29.00
2022-10-14T13:35:05.957Z,27.90
2022-10-14T13:38:13.190Z,27.80
2022-10-14T13:40:45.778Z,27.60
2022-10-14T13:43:29.484Z,28.90
2022-10-14T13:46:22.528Z,29.10
2022-10-14T13:48:51.904Z,30.00
2022-10-14T13:51:37.676Z,30.90
2022-10-14T13:54:16.665Z,32.40
2022-10-14T13:56:43.928Z,33.20
2022-10-14T13:59:43.412Z,34.90
2022-10-14T14:02:29.029Z,35.70
2022-10-14T14:04:59.250Z,36.90
2022-10-14T14:08:14.653Z,37.30
2022-10-14T14:10:28.601Z,37.90
2022-10-14T14:12:56.331Z,38.50
2022-10-14T14:15:31.144Z,39.10
2022-10-14T14:17:57.897Z,40.50
2022-10-14T14:20:28.685Z,41.10
2022-10-14T14:22:59.521Z,41.40
2022-10-14T14:25:35.042Z,42.60
2022-10-14T14:28:05.741Z,43.50
2022-10-14T14:30:37.799Z,43.90
2022-10-14T14:33:11.156Z,44.50
2022-10-14T14:35:38.616Z,45.00
2022-10-14T14:38:30.501Z,45.50
2022-10-14T14:41:24.290Z,45.10
2022-10-14T14:44:20.962Z,45.10
2022-10-14T14:46:48.477Z,44.80
2022-10-14T14:49:25.346Z,44.80
2022-10-14T14:51:52.581Z,45.90
2022-10-14T14:54:22.434Z,47.00
2022-10-14T14:56:54.041Z,46.70
2022-10-14T14:59:37.213Z,46.10
2022-10-14T15:02:17.710Z,46.70
2022-10-14T15:04:50.502Z,46.90
2022-10-14T15:07:21.795Z,47.80
2022-10-14T15:09:58.972Z,48.00
2022-10-14T15:12:30.806Z,49.00
2022-10-14T15:14:59.439Z,49.90
2022-10-14T15:17:34.334Z,51.00
2022-10-14T15:20:32.003Z,52.00
2022-10-14T15:22:58.828Z,53.30
2022-10-14T15:25:34.617Z,54.30
2022-10-14T15:28:03.154Z,55.60
2022-10-14T15:30:51.843Z,56.50
2022-10-14T15:33:23.537Z,56.90
2022-10-14T15:36:04.536Z,57.80
2022-10-14T15:41:09.797Z,58.30
2022-10-14T15:43:39.779Z,58.60
2022-10-14T15:46:30.731Z,58.70
2022-10-14T15:49:01.441Z,59.20
2022-10-14T15:51:30.633Z,59.60
2022-10-14T15:53:58.161Z,60.50
2022-10-14T15:56:29.192Z,61.00
2022-10-14T15:58:56.195Z,61.90
2022-10-14T16:01:23.710Z,62.30
2022-10-14T16:03:54.516Z,63.10
2022-10-14T16:06:22.703Z,63.60
2022-10-14T16:08:52.772Z,64.60
2022-10-14T16:11:25.943Z,65.70
2022-10-14T16:13:52.860Z,65.60
2022-10-14T16:16:27.293Z,66.30
2022-10-14T16:18:54.169Z,67.40
2022-10-14T16:21:21.127Z,68.10
2022-10-14T16:23:47.980Z,68.90
2022-10-14T16:26:17.075Z,69.60
2022-10-14T16:28:44.407Z,70.20
2022-10-14T16:31:15.225Z,70.60
2022-10-14T16:33:45.818Z,71.70
2022-10-14T16:36:16.519Z,72.60
2022-10-14T16:38:43.821Z,73.10
2022-10-14T16:41:11.446Z,73.70
2022-10-14T16:43:38.877Z,74.10
2022-10-14T16:46:10.595Z,75.00
2022-10-14T16:48:40.161Z,75.10
2022-10-14T16:51:07.441Z,75.70
2022-10-14T16:53:48.882Z,76.20
2022-10-14T16:56:35.778Z,76.50
2022-10-14T16:59:03.671Z,76.90
2022-10-14T17:01:31.538Z,76.80
2022-10-14T17:03:58.435Z,77.00
2022-10-14T17:06:25.973Z,76.80
2022-10-14T17:08:53.327Z,76.80
2022-10-14T17:11:28.284Z,76.80
2022-10-14T17:13:56.537Z,77.10
2022-10-14T17:16:28.556Z,77.20
2022-10-14T17:18:56.829Z,77.00
2022-10-14T17:21:24.357Z,77.20
2022-10-14T17:23:51.188Z,76.90
2022-10-14T17:26:19.368Z,76.70
2022-10-14T17:28:47.087Z,76.20
2022-10-14T17:31:16.582Z,75.80
2022-10-14T17:33:44.007Z,75.70
2022-10-14T17:36:19.740Z,75.30
2022-10-14T17:38:48.041Z,74.80
2022-10-14T17:41:15.730Z,74.70
2022-10-14T17:43:42.548Z,74.50
2022-10-14T17:46:13.226Z,74.30
2022-10-14T17:48:42.530Z,74.50
2022-10-14T17:51:13.507Z,74.50
2022-10-14T17:53:40.575Z,74.70
2022-10-14T17:56:10.157Z,74.70
2022-10-14T17:58:37.188Z,74.70
2022-10-14T18:01:12.715Z,74.70
2022-10-14T18:03:44.094Z,74.80
2022-10-14T18:06:22.080Z,74.80
2022-10-14T18:08:57.860Z,74.90
2022-10-14T18:11:25.481Z,75.30
2022-10-14T18:13:58.099Z,75.40
2022-10-14T18:16:31.776Z,75.40
2022-10-14T18:18:59.658Z,75.40
2022-10-14T18:21:27.512Z,75.40
2022-10-14T18:23:54.930Z,75.50
2022-10-14T18:26:21.989Z,76.00
2022-10-14T18:28:53.607Z,77.20
2022-10-14T18:31:22.785Z,76.50
2022-10-14T18:33:51.555Z,76.80
2022-10-14T18:36:22.768Z,77.40
2022-10-14T18:38:54.633Z,77.40
2022-10-14T18:41:25.007Z,77.80
2022-10-14T18:43:52.142Z,78.00
2022-10-14T18:46:25.484Z,78.60
2022-10-14T18:48:54.068Z,79.00
2022-10-14T18:51:27.092Z,79.00
2022-10-14T18:54:01.711Z,79.40
2022-10-14T18:56:33.506Z,79.60
2022-10-14T18:59:09.269Z,80.30
2022-10-14T19:01:37.324Z,80.00
2022-10-14T19:04:08.134Z,80.20
2022-10-14T19:06:37.218Z,80.40
2022-10-14T19:09:05.225Z,80.60
2022-10-14T19:11:35.175Z,80.80
2022-10-14T19:14:03.873Z,81.00
2022-10-14T19:16:36.187Z,81.00
2022-10-14T19:19:11.578Z,81.40
2022-10-14T19:21:39.665Z,81.80
2022-10-14T19:24:10.009Z,81.80
2022-10-14T19:26:44.473Z,81.60
2022-10-14T19:29:17.192Z,81.50
2022-10-14T19:31:44.318Z,81.40
2022-10-14T19:34:14.262Z,81.20
2022-10-14T19:36:42.228Z,80.80
2022-10-14T19:39:13.186Z,80.40
2022-10-14T19:41:43.361Z,80.30
2022-10-14T19:44:11.848Z,80.30
2022-10-14T19:46:39.005Z,80.00
2022-10-14T19:49:06.184Z,80.00
2022-10-14T19:51:35.968Z,80.00
2022-10-14T19:54:08.355Z,80.00
2022-10-14T19:56:35.284Z,80.00
2022-10-14T19:59:02.577Z,79.70
2022-10-14T20:01:32.519Z,79.30
2022-10-14T20:04:01.335Z,79.30
2022-10-14T20:06:33.892Z,79.20
2022-10-14T20:09:00.970Z,79.00
2022-10-14T20:11:30.936Z,79.60
2022-10-14T20:13:58.128Z,78.70
2022-10-14T20:16:25.154Z,78.50
2022-10-14T20:18:52.429Z,78.40
2022-10-14T20:21:19.466Z,78.00
2022-10-14T20:23:48.838Z,77.80
2022-10-14T20:26:18.457Z,77.50
2022-10-14T20:28:45.927Z,77.30
2022-10-14T20:31:18.586Z,77.10
2022-10-14T20:33:45.764Z,76.70
2022-10-14T20:36:15.600Z,76.60
2022-10-14T20:38:43.179Z,76.40
2022-10-14T20:41:16.514Z,76.30
2022-10-14T20:43:45.025Z,76.70
2022-10-14T20:46:12.541Z,75.90
2022-10-14T20:48:39.511Z,75.60
2022-10-14T20:51:10.905Z,75.70
2022-10-14T20:53:38.476Z,75.60
2022-10-14T20:56:08.377Z,75.80
2022-10-14T20:58:35.809Z,75.60
2022-10-14T21:01:12.000Z,75.60
2022-10-14T21:03:40.321Z,75.60
2022-10-14T21:06:10.375Z,75.60
2022-10-14T21:08:40.039Z,75.70
2022-10-14T21:11:13.730Z,75.70
2022-10-14T21:13:55.374Z,75.80
2022-10-14T21:16:28.511Z,75.60
2022-10-14T21:18:58.314Z,75.60
2022-10-14T21:21:31.299Z,75.70
2022-10-14T21:24:02.895Z,75.60
2022-10-14T21:26:32.486Z,75.60
2022-10-14T21:29:03.168Z,75.80
2022-10-14T21:31:30.612Z,76.00
2022-10-14T21:34:04.418Z,76.00
2022-10-14T21:36:33.065Z,76.10
2022-10-14T21:39:01.460Z,76.20
2022-10-14T21:41:30.645Z,76.20
2022-10-14T21:43:59.222Z,76.30
2022-10-14T21:46:27.645Z,76.20
2022-10-14T21:48:57.121Z,75.80
2022-10-14T21:51:26.465Z,75.80
2022-10-14T21:53:53.328Z,75.70
2022-10-14T21:56:22.739Z,75.80
2022-10-14T21:58:51.947Z,75.90
2022-10-14T22:01:29.688Z,75.70
2022-10-14T22:04:06.175Z,75.70
2022-10-14T22:06:34.874Z,75.70
2022-10-14T22:09:03.988Z,75.70
2022-10-14T22:11:39.731Z,75.60
2022-10-14T22:14:13.241Z,75.70
2022-10-14T22:16:40.077Z,75.70
2022-10-14T22:19:13.314Z,75.60
2022-10-14T22:21:41.953Z,75.60
2022-10-14T22:24:09.938Z,75.90
2022-10-14T22:26:38.093Z,76.00
2022-10-14T22:29:17.013Z,76.00
2022-10-14T22:31:45.096Z,76.10
2022-10-14T22:34:14.359Z,76.20
2022-10-14T22:36:41.304Z,76.50
2022-10-14T22:39:12.312Z,76.90
2022-10-14T22:41:41.556Z,77.20
2022-10-14T22:44:09.185Z,77.40
2022-10-14T22:46:37.956Z,77.80
2022-10-14T22:49:07.420Z,78.00
2022-10-14T22:51:40.661Z,78.00
2022-10-14T22:54:08.168Z,78.20
2022-10-14T22:56:35.163Z,78.00
2022-10-14T22:59:08.282Z,78.00
2022-10-14T23:01:35.111Z,77.80
2022-10-14T23:04:02.722Z,77.60
2022-10-14T23:06:30.532Z,77.40
2022-10-14T23:09:00.486Z,77.30
2022-10-14T23:11:30.775Z,77.30
2022-10-14T23:14:03.041Z,77.30
2022-10-14T23:16:34.734Z,77.20
2022-10-14T23:19:02.281Z,77.10
2022-10-14T23:21:34.306Z,77.00
2022-10-14T23:24:12.308Z,77.00
2022-10-14T23:26:39.352Z,76.80
2022-10-14T23:29:09.827Z,76.60
2022-10-14T23:31:38.481Z,76.40
2022-10-14T23:34:09.717Z,76.20
2022-10-14T23:36:36.934Z,75.90
2022-10-14T23:39:07.048Z,75.60
2022-10-14T23:41:33.947Z,75.60
2022-10-14T23:44:03.228Z,75.60
2022-10-14T23:46:30.241Z,75.50
2022-10-14T23:49:06.958Z,75.40
2022-10-14T23:51:35.295Z,75.10
2022-10-14T23:54:02.315Z,75.00
2022-10-14T23:56:29.148Z,74.80
2022-10-14T23:58:56.031Z,74.70
